Time;durP1;ratioP1;P1;durP2;ratioP2;P2;SDS_P1;SDS_P2;PMS_P1;PMS_P2;Temp;Humidity;BMP_temperature;BMP_pressure;BME280_temperature;BME280_humidity;BME280_pressure;Samples;Min_cycle;Max_cycle;Signal;HPM_P1;HPM_P2
2021/04/04 00:00:07;;;;;;;9.68;7.78;;;;;;;3.91;49.86;101923.72;693116;28;22369;-51
2021/04/04 00:00:33;;;;;;;12.77;8.68;;;;;;;3.89;49.88;101926.50;685665;28;135785;-54
2021/04/04 00:00:54;;;;;;;12.15;8.18;;;;;;;3.88;50.02;101916.75;691207;28;15928;-52
2021/04/04 00:01:16;;;;;;;11.02;7.90;;;;;;;3.88;50.00;101916.75;689502;28;47339;-54
2021/04/04 00:01:38;;;;;;;9.52;7.18;;;;;;;3.87;50.02;101916.88;688898;28;46231;-54
2021/04/04 00:01:59;;;;;;;8.25;7.05;;;;;;;3.86;50.30;101923.19;689786;28;41442;-54
2021/04/04 00:02:20;;;;;;;7.72;6.93;;;;;;;3.82;50.50;101916.34;692341;28;1770;-55
2021/04/04 00:02:42;;;;;;;9.18;7.20;;;;;;;3.80;50.62;101921.78;692863;28;23547;-53
2021/04/04 00:03:04;;;;;;;10.50;7.38;;;;;;;3.78;50.68;101924.56;693268;28;23477;-53
2021/04/04 00:03:25;;;;;;;11.85;7.38;;;;;;;3.76;50.71;101922.94;691109;28;69453;-51
2021/04/04 00:03:46;;;;;;;11.93;7.63;;;;;;;3.78;50.60;101929.91;693182;28;19378;-52
2021/04/04 00:04:07;;;;;;;9.60;7.13;;;;;;;3.79;50.54;101922.72;694056;28;23405;-54
2021/04/04 00:04:29;;;;;;;8.15;7.05;;;;;;;3.78;50.49;101929.06;694521;28;1443;-55
2021/04/04 00:04:50;;;;;;;9.40;7.40;;;;;;;3.77;50.65;101928.19;692553;28;44403;-55
2021/04/04 00:05:12;;;;;;;11.73;8.25;;;;;;;3.77;50.48;101928.19;693012;28;22399;-57
2021/04/04 00:05:34;;;;;;;12.52;8.52;;;;;;;3.78;50.52;101926.38;692258;28;44403;-54
2021/04/04 00:05:55;;;;;;;10.68;8.52;;;;;;;3.79;50.32;101922.72;691583;28;47258;-53
2021/04/04 00:06:16;;;;;;;11.82;8.63;;;;;;;3.77;50.40;101925.50;693278;28;23420;-56
2021/04/04 00:06:37;;;;;;;11.05;8.30;;;;;;;3.77;50.25;101925.50;693122;28;21513;-54
2021/04/04 00:06:59;;;;;;;10.50;8.27;;;;;;;3.75;50.39;101924.75;692863;28;23417;-55
2021/04/04 00:07:20;;;;;;;10.15;8.40;;;;;;;3.75;50.33;101926.59;692119;28;46259;-54
2021/04/04 00:07:42;;;;;;;10.65;7.82;;;;;;;3.74;50.27;101922.19;692407;28;22183;-53
2021/04/04 00:08:03;;;;;;;12.05;8.27;;;;;;;3.72;50.52;101919.63;692067;28;46276;-55
2021/04/04 00:08:25;;;;;;;10.45;7.97;;;;;;;3.69;50.82;101927.00;692570;28;21520;-55
2021/04/04 00:08:47;;;;;;;9.15;7.75;;;;;;;3.69;50.74;101921.66;691755;28;46021;-53
2021/04/04 00:09:08;;;;;;;8.75;7.18;;;;;;;3.69;50.61;101924.34;692226;28;45217;-54
2021/04/04 00:09:29;;;;;;;8.85;6.72;;;;;;;3.69;50.73;101924.34;693137;28;23491;-52
2021/04/04 00:09:50;;;;;;;9.75;6.43;;;;;;;3.70;50.70;101920.69;692909;28;22387;-55
2021/04/04 00:10:13;;;;;;;11.52;6.60;;;;;;;3.70;50.60;101931.38;692765;28;22497;-53
2021/04/04 00:10:34;;;;;;;9.90;6.88;;;;;;;3.68;50.67;101922.59;691035;28;67632;-51
2021/04/04 00:10:55;;;;;;;10.05;7.05;;;;;;;3.67;50.68;101923.56;693843;28;22205;-53
2021/04/04 00:11:16;;;;;;;10.45;6.80;;;;;;;3.64;50.92;101926.44;692975;28;22424;-54
2021/04/04 00:11:40;;;;;;;8.40;6.40;;;;;;;3.61;51.08;101919.50;693046;28;22334;-56
2021/04/04 00:12:01;;;;;;;8.85;6.40;;;;;;;3.62;50.94;101926.56;690708;28;90808;-54
2021/04/04 00:12:22;;;;;;;8.95;6.32;;;;;;;3.63;50.95;101924.75;693358;28;23443;-57
2021/04/04 00:12:43;;;;;;;10.57;6.60;;;;;;;3.63;50.82;101919.41;694454;28;1351;-52
2021/04/04 00:13:05;;;;;;;10.05;6.55;;;;;;;3.64;51.03;101924.63;693749;28;19591;-55
2021/04/04 00:13:26;;;;;;;9.30;6.18;;;;;;;3.65;50.76;101929.00;691982;28;42014;-53
2021/04/04 00:13:47;;;;;;;9.40;6.30;;;;;;;3.66;50.77;101927.22;693208;28;12501;-54
2021/04/04 00:14:08;;;;;;;7.97;6.28;;;;;;;3.68;50.60;101930.63;693891;28;13051;-55
2021/04/04 00:14:30;;;;;;;7.57;5.88;;;;;;;3.67;50.82;101924.44;694464;28;905;-55
2021/04/04 00:14:52;;;;;;;8.35;6.05;;;;;;;3.67;50.75;101923.56;689820;28;37245;-54
2021/04/04 00:15:15;;;;;;;8.80;6.28;;;;;;;3.67;50.52;101927.09;689579;28;45754;-54
2021/04/04 00:15:36;;;;;;;9.40;6.28;;;;;;;3.67;50.66;101919.09;689069;28;69482;-56
2021/04/04 00:15:58;;;;;;;8.63;6.13;;;;;;;3.68;50.60;101919.94;692099;28;45247;-55
2021/04/04 00:16:19;;;;;;;8.75;5.90;;;;;;;3.69;50.72;101922.50;693102;28;23471;-55
2021/04/04 00:16:40;;;;;;;9.20;5.90;;;;;;;3.70;50.60;101923.34;692307;28;23486;-52
2021/04/04 00:17:02;;;;;;;7.72;5.63;;;;;;;3.71;50.39;101917.06;693846;28;23517;-56
2021/04/04 00:17:23;;;;;;;6.10;5.45;;;;;;;3.73;50.31;101920.47;694037;28;46356;-53
2021/04/04 00:17:44;;;;;;;7.22;5.68;;;;;;;3.73;50.39;101916.00;694950;28;19419;-54
2021/04/04 00:18:06;;;;;;;8.30;5.95;;;;;;;3.73;50.47;101923.16;694315;28;21541;-57
2021/04/04 00:18:27;;;;;;;6.80;5.75;;;;;;;3.73;50.21;101916.00;693890;28;46359;-54
2021/04/04 00:18:48;;;;;;;8.05;5.60;;;;;;;3.74;50.33;101916.84;693469;28;22623;-52
2021/04/04 00:19:09;;;;;;;8.38;6.38;;;;;;;3.74;50.19;101917.69;693370;28;16678;-57
2021/04/04 00:19:31;;;;;;;8.38;6.35;;;;;;;3.75;50.17;101919.41;694129;28;1050;-57
2021/04/04 00:19:52;;;;;;;7.35;5.85;;;;;;;3.73;50.47;101918.69;692894;28;39583;-54
2021/04/04 00:20:16;;;;;;;6.28;5.57;;;;;;;3.72;50.18;101919.63;692518;28;22421;-57
2021/04/04 00:20:37;;;;;;;6.30;5.60;;;;;;;3.73;50.27;101920.47;691743;28;70559;-57
2021/04/04 00:20:58;;;;;;;6.53;5.40;;;;;;;3.70;50.25;101915.34;693424;28;21548;-55
2021/04/04 00:21:19;;;;;;;6.50;5.60;;;;;;;3.71;50.17;101917.06;693464;28;22473;-55
2021/04/04 00:21:40;;;;;;;7.32;5.70;;;;;;;3.71;50.16;101925.91;693164;28;22528;-55
2021/04/04 00:22:01;;;;;;;7.88;5.60;;;;;;;3.72;50.15;101916.09;692395;28;21691;-56
2021/04/04 00:22:22;;;;;;;7.45;5.70;;;;;;;3.71;50.19;101917.91;692791;28;46403;-52
2021/04/04 00:22:45;;;;;;;5.97;5.22;;;;;;;3.71;50.01;101917.91;693837;28;23396;-51
2021/04/04 00:23:06;;;;;;;6.38;5.40;;;;;;;3.70;49.97;101920.69;692828;28;44279;-57
2021/04/04 00:23:27;;;;;;;7.15;5.32;;;;;;;3.71;50.02;101917.06;693278;28;22390;-52
2021/04/04 00:23:48;;;;;;;8.82;5.80;;;;;;;3.70;49.96;101921.56;693004;28;23501;-56
2021/04/04 00:24:10;;;;;;;7.35;5.82;;;;;;;3.70;49.96;101912.66;693491;28;23552;-56
2021/04/04 00:24:31;;;;;;;6.72;5.43;;;;;;;3.68;50.00;101912.75;693225;28;23508;-55
2021/04/04 00:24:52;;;;;;;6.53;5.30;;;;;;;3.68;49.98;101919.94;693036;28;47273;-58
2021/04/04 00:25:14;;;;;;;6.53;5.25;;;;;;;3.68;50.19;101923.44;693105;28;21536;-56
2021/04/04 00:25:35;;;;;;;5.55;5.03;;;;;;;3.69;49.90;101913.66;690539;28;29574;-53
2021/04/04 00:25:57;;;;;;;6.60;5.25;;;;;;;3.67;49.93;101915.53;690123;28;11266;-56
2021/04/04 00:26:18;;;;;;;6.53;5.20;;;;;;;3.65;49.71;101918.31;690702;28;23530;-53
2021/04/04 00:26:39;;;;;;;6.07;5.30;;;;;;;3.63;50.12;101920.25;690845;28;21544;-54
2021/04/04 00:27:00;;;;;;;6.75;5.05;;;;;;;3.61;50.28;101917.66;690351;28;23457;-54
2021/04/04 00:27:22;;;;;;;6.18;4.88;;;;;;;3.60;50.18;101917.78;689723;28;46370;-55
2021/04/04 00:27:43;;;;;;;5.43;4.93;;;;;;;3.61;50.17;101915.00;691141;28;11351;-53
2021/04/04 00:28:05;;;;;;;5.70;5.20;;;;;;;3.61;50.28;101914.16;690712;28;22423;-54
2021/04/04 00:28:26;;;;;;;6.40;5.20;;;;;;;3.60;50.27;101907.09;690244;28;46333;-52
2021/04/04 00:28:48;;;;;;;8.30;5.50;;;;;;;3.61;50.17;101919.50;690528;28;23523;-56
2021/04/04 00:29:09;;;;;;;7.70;5.35;;;;;;;3.59;50.25;101914.25;690386;28;44387;-55
2021/04/04 00:29:30;;;;;;;7.65;5.93;;;;;;;3.59;50.19;101916.94;690525;28;21531;-57
2021/04/04 00:29:52;;;;;;;6.78;5.15;;;;;;;3.61;50.33;101922.16;689169;28;46680;-54
2021/04/04 00:30:19;;;;;;;6.70;5.10;;;;;;;3.60;50.11;101917.78;689895;28;22391;-54
2021/04/04 00:30:40;;;;;;;6.65;5.10;;;;;;;3.58;50.18;101915.22;685964;28;138685;-55
2021/04/04 00:31:01;;;;;;;7.28;5.43;;;;;;;3.59;50.28;101918.75;691199;28;12727;-55
2021/04/04 00:31:22;;;;;;;6.40;5.15;;;;;;;3.56;50.14;101917.13;690708;28;22370;-55
2021/04/04 00:31:44;;;;;;;5.90;5.30;;;;;;;3.57;50.23;101918.84;690815;28;23637;-56
2021/04/04 00:32:05;;;;;;;5.70;5.10;;;;;;;3.55;50.46;101910.06;690245;28;22479;-54
2021/04/04 00:32:26;;;;;;;6.65;4.95;;;;;;;3.55;50.38;101911.91;690192;28;46296;-53
2021/04/04 00:32:48;;;;;;;6.85;5.13;;;;;;;3.55;50.38;101914.56;690828;28;23828;-54
2021/04/04 00:33:09;;;;;;;6.75;4.90;;;;;;;3.53;50.29;101917.34;691947;28;1053;-53
2021/04/04 00:33:31;;;;;;;5.93;5.25;;;;;;;3.53;50.38;101920.00;690733;28;23514;-55
2021/04/04 00:33:52;;;;;;;6.07;5.22;;;;;;;3.53;50.50;101924.50;690601;28;20493;-53
2021/04/04 00:34:13;;;;;;;6.15;5.40;;;;;;;3.51;50.54;101913.94;690141;28;21533;-55
2021/04/04 00:34:34;;;;;;;7.18;5.43;;;;;;;3.50;50.62;101914.03;690409;28;21533;-56
2021/04/04 00:34:55;;;;;;;8.57;5.55;;;;;;;3.48;50.42;101915.91;690357;28;22454;-55
2021/04/04 00:35:18;;;;;;;6.53;4.82;;;;;;;3.48;50.42;101918.59;690106;28;23483;-55
2021/04/04 00:35:39;;;;;;;6.05;5.35;;;;;;;3.47;50.67;101919.56;686337;28;111966;-54
2021/04/04 00:36:00;;;;;;;6.45;5.45;;;;;;;3.45;50.46;101924.13;691049;28;3954;-57
2021/04/04 00:36:21;;;;;;;6.88;5.00;;;;;;;3.44;50.72;101920.63;690439;28;21516;-54
2021/04/04 00:36:43;;;;;;;6.75;5.07;;;;;;;3.42;50.92;101917.19;690430;28;22477;-56
2021/04/04 00:37:04;;;;;;;7.85;5.30;;;;;;;3.40;50.80;101919.97;689840;28;16726;-55
2021/04/04 00:37:25;;;;;;;5.77;5.13;;;;;;;3.40;50.82;101927.09;690685;28;23522;-54
2021/04/04 00:37:47;;;;;;;6.15;5.15;;;;;;;3.39;50.75;101925.41;689651;28;44380;-54
2021/04/04 00:38:09;;;;;;;7.25;5.28;;;;;;;3.37;50.94;101925.50;688454;28;23539;-54
2021/04/04 00:38:30;;;;;;;8.85;5.45;;;;;;;3.35;51.02;101921.22;689615;28;44444;-56
2021/04/04 00:38:52;;;;;;;7.05;5.38;;;;;;;3.33;51.16;101918.66;689913;28;44369;-52
2021/04/04 00:39:13;;;;;;;7.13;5.25;;;;;;;3.30;51.05;101923.34;690630;28;13956;-54
2021/04/04 00:39:34;;;;;;;7.00;5.03;;;;;;;3.30;51.06;101915.34;690618;28;15435;-51
2021/04/04 00:39:55;;;;;;;7.75;5.13;;;;;;;3.27;51.21;101916.38;690243;28;12355;-51
2021/04/04 00:40:19;;;;;;;7.25;5.68;;;;;;;3.27;51.37;101913.72;691103;28;6293;-52
2021/04/04 00:40:44;;;;;;;6.43;5.30;;;;;;;3.26;51.44;101925.38;688639;28;84693;-57
2021/04/04 00:41:06;;;;;;;6.15;4.90;;;;;;;3.24;51.53;101912.13;691610;28;893;-57
2021/04/04 00:41:27;;;;;;;8.25;5.20;;;;;;;3.24;51.47;101914.78;691417;28;14823;-56
2021/04/04 00:41:48;;;;;;;8.25;5.50;;;;;;;3.24;51.51;101914.78;690597;28;22356;-52
2021/04/04 00:42:10;;;;;;;7.50;5.43;;;;;;;3.24;51.38;101921.91;690194;28;46478;-53
2021/04/04 00:42:31;;;;;;;6.25;5.30;;;;;;;3.24;51.59;101921.91;690808;28;17377;-54
2021/04/04 00:42:52;;;;;;;6.65;5.38;;;;;;;3.23;51.57;101923.75;691460;28;949;-56
2021/04/04 00:43:14;;;;;;;5.68;5.07;;;;;;;3.23;51.58;101923.75;689792;28;46360;-54
2021/04/04 00:43:36;;;;;;;5.80;4.90;;;;;;;3.24;51.61;101921.91;691549;28;1461;-57
2021/04/04 00:43:57;;;;;;;5.57;5.07;;;;;;;3.22;51.81;101919.34;690469;28;22398;-55
2021/04/04 00:44:19;;;;;;;6.05;5.25;;;;;;;3.22;51.82;101927.38;691232;28;1225;-57
2021/04/04 00:44:40;;;;;;;6.28;5.25;;;;;;;3.19;51.92;101922.22;690573;28;16230;-54
2021/04/04 00:45:02;;;;;;;7.20;5.03;;;;;;;3.19;52.00;101922.22;689906;28;42949;-57
2021/04/04 00:45:26;;;;;;;6.22;5.20;;;;;;;3.19;51.98;101924.03;689369;28;22553;-57
2021/04/04 00:45:47;;;;;;;7.40;5.40;;;;;;;3.19;51.86;101924.03;689481;28;71610;-57
2021/04/04 00:46:08;;;;;;;6.15;5.43;;;;;;;3.19;51.76;101926.72;691787;28;44592;-57
2021/04/04 00:46:30;;;;;;;6.40;5.15;;;;;;;3.16;51.94;101922.41;692750;28;13316;-56
2021/04/04 00:46:51;;;;;;;6.15;5.55;;;;;;;3.15;51.89;101923.41;691778;28;23503;-57
2021/04/04 00:47:12;;;;;;;6.07;5.47;;;;;;;3.13;52.11;101919.94;692537;28;24632;-57
2021/04/04 00:47:33;;;;;;;6.70;5.40;;;;;;;3.14;52.29;101915.50;692759;28;1452;-57
2021/04/04 00:47:54;;;;;;;7.70;5.27;;;;;;;3.11;52.42;101924.53;692559;28;23284;-58
2021/04/04 00:48:16;;;;;;;5.88;5.18;;;;;;;3.08;52.25;101921.22;691235;28;46390;-56
2021/04/04 00:48:37;;;;;;;5.80;5.20;;;;;;;3.05;52.43;101914.25;692035;28;22174;-56
2021/04/04 00:48:58;;;;;;;6.32;5.30;;;;;;;3.02;52.53;101923.31;691730;28;20252;-56
2021/04/04 00:49:19;;;;;;;6.10;5.50;;;;;;;2.99;52.63;101923.50;689450;28;44419;-57
2021/04/04 00:49:40;;;;;;;6.10;5.45;;;;;;;2.99;52.65;101922.66;692244;28;23476;-54
2021/04/04 00:50:03;;;;;;;9.38;5.80;;;;;;;2.96;52.56;101917.50;693161;28;1009;-54
2021/04/04 00:50:27;;;;;;;6.97;5.38;;;;;;;2.96;52.47;101920.19;690476;28;69111;-54
2021/04/04 00:50:48;;;;;;;5.90;5.28;;;;;;;2.93;52.69;101912.38;687738;28;93045;-56
2021/04/04 00:51:10;;;;;;;5.70;5.10;;;;;;;2.92;52.69;101916.03;689383;28;46435;-55
2021/04/04 00:51:33;;;;;;;7.45;5.55;;;;;;;2.89;52.70;101909.91;690861;28;40654;-56
2021/04/04 00:51:54;;;;;;;7.57;5.80;;;;;;;2.88;52.77;101916.22;691854;28;46550;-55
2021/04/04 00:52:15;;;;;;;7.70;5.32;;;;;;;2.87;52.72;101916.31;689950;28;23555;-54
2021/04/04 00:52:37;;;;;;;7.45;5.50;;;;;;;2.86;52.80;101919.94;689697;28;23288;-52
2021/04/04 00:52:59;;;;;;;8.00;5.70;;;;;;;2.86;52.75;101909.25;691632;28;22455;-53
2021/04/04 00:53:20;;;;;;;7.93;5.78;;;;;;;2.85;52.88;101924.41;690166;28;69531;-54
2021/04/04 00:53:42;;;;;;;8.38;5.95;;;;;;;2.85;52.87;101919.09;690742;28;8499;-53
2021/04/04 00:54:04;;;;;;;6.68;5.57;;;;;;;2.84;53.13;101921.84;692100;28;23026;-53
2021/04/04 00:54:25;;;;;;;7.05;5.65;;;;;;;2.84;52.81;101917.34;691523;28;46326;-53
2021/04/04 00:54:47;;;;;;;6.57;5.30;;;;;;;2.84;52.99;101920.03;690795;28;46364;-55
2021/04/04 00:55:09;;;;;;;8.40;5.63;;;;;;;2.83;52.78;101920.97;691889;28;23530;-51
2021/04/04 00:55:30;;;;;;;6.00;5.07;;;;;;;2.84;52.99;101920.03;690282;28;46402;-53
2021/04/04 00:55:51;;;;;;;6.85;5.15;;;;;;;2.85;52.82;101918.19;689762;28;44118;-52
2021/04/04 00:56:13;;;;;;;7.95;5.18;;;;;;;2.84;52.82;101921.84;691090;28;22296;-56
2021/04/04 00:56:34;;;;;;;7.10;5.43;;;;;;;2.83;53.00;101920.13;690553;28;45163;-53
2021/04/04 00:56:55;;;;;;;7.43;5.47;;;;;;;2.84;52.94;101921.84;691055;28;22430;-56
2021/04/04 00:57:16;;;;;;;6.80;5.50;;;;;;;2.84;52.93;101919.19;690119;28;21315;-53
2021/04/04 00:57:39;;;;;;;7.07;5.47;;;;;;;2.85;53.00;101921.75;689798;28;22414;-57
2021/04/04 00:58:01;;;;;;;6.03;5.38;;;;;;;2.87;53.03;101916.31;689125;28;70973;-53
2021/04/04 00:58:22;;;;;;;7.00;5.55;;;;;;;2.86;52.86;101919.94;688496;28;6841;-56
2021/04/04 00:58:43;;;;;;;5.75;5.13;;;;;;;2.86;52.80;101918.09;687061;28;45220;-53
2021/04/04 00:59:04;;;;;;;6.28;5.00;;;;;;;2.87;52.74;101921.66;688300;28;23446;-55
2021/04/04 00:59:26;;;;;;;7.35;5.47;;;;;;;2.87;52.81;101925.16;689444;28;22411;-56
2021/04/04 00:59:47;;;;;;;8.88;5.30;;;;;;;2.86;52.83;101918.09;690710;28;46340;-53
2021/04/04 01:00:10;;;;;;;7.53;5.43;;;;;;;2.85;52.67;101921.75;692100;28;20544;-54
2021/04/04 01:00:34;;;;;;;5.80;5.18;;;;;;;2.86;52.64;101918.09;691897;28;38137;-55
2021/04/04 01:00:56;;;;;;;5.78;5.00;;;;;;;2.87;52.57;101911.81;691266;28;40086;-56
2021/04/04 01:01:17;;;;;;;6.22;5.53;;;;;;;2.87;52.61;101917.16;690908;28;45355;-54
2021/04/04 01:01:38;;;;;;;7.82;5.88;;;;;;;2.87;52.59;101922.50;691755;28;23478;-56
2021/04/04 01:01:59;;;;;;;8.88;5.90;;;;;;;2.86;52.51;101914.59;691669;28;22817;-54
2021/04/04 01:02:21;;;;;;;6.88;5.30;;;;;;;2.87;52.54;101916.31;693774;28;883;-56
2021/04/04 01:02:43;;;;;;;7.00;5.60;;;;;;;2.87;52.50;101916.31;691920;28;46111;-53
2021/04/04 01:03:05;;;;;;;7.60;5.60;;;;;;;2.88;52.45;101915.34;691704;28;45174;-54
2021/04/04 01:03:27;;;;;;;7.93;6.10;;;;;;;2.88;52.42;101924.22;693118;28;960;-55
2021/04/04 01:03:48;;;;;;;8.23;6.15;;;;;;;2.89;52.29;101925.06;693066;28;14580;-51
2021/04/04 01:04:09;;;;;;;7.80;5.55;;;;;;;2.90;52.46;101918.78;692962;28;22298;-55
2021/04/04 01:04:30;;;;;;;7.60;5.32;;;;;;;2.89;52.56;101920.56;692784;28;22387;-57
2021/04/04 01:04:53;;;;;;;8.73;5.83;;;;;;;2.86;52.54;101920.78;693752;28;2466;-51
2021/04/04 01:05:17;;;;;;;7.68;5.85;;;;;;;2.85;52.66;101919.09;692654;28;1530;-55
2021/04/04 01:05:41;;;;;;;7.07;5.65;;;;;;;2.83;52.84;101917.44;690373;28;92304;-51
2021/04/04 01:06:04;;;;;;;8.00;5.75;;;;;;;2.83;52.87;101920.97;691227;28;92733;-53
2021/04/04 01:06:25;;;;;;;8.18;5.45;;;;;;;2.81;52.91;101914.88;691895;28;68320;-52
2021/04/04 01:06:46;;;;;;;7.88;5.57;;;;;;;2.82;53.16;101913.94;693458;28;21919;-53
2021/04/04 01:07:07;;;;;;;8.45;5.80;;;;;;;2.81;53.03;101911.38;693824;28;22432;-56
2021/04/04 01:07:29;;;;;;;6.45;5.45;;;;;;;2.82;53.08;101913.06;694027;28;22403;-54
2021/04/04 01:07:50;;;;;;;7.40;5.68;;;;;;;2.82;53.03;101910.38;693546;28;46293;-51
2021/04/04 01:08:11;;;;;;;7.30;5.63;;;;;;;2.80;53.29;101910.50;694136;28;23420;-55
2021/04/04 01:08:33;;;;;;;7.68;5.65;;;;;;;2.81;53.11;101922.03;689428;28;45212;-58
2021/04/04 01:08:55;;;;;;;7.32;5.55;;;;;;;2.81;53.34;101922.03;691661;28;23548;-56
2021/04/04 01:09:16;;;;;;;7.53;5.50;;;;;;;2.80;53.02;101912.31;687583;28;39936;-58
2021/04/04 01:09:37;;;;;;;7.38;5.55;;;;;;;2.80;53.19;101913.16;684234;28;22016;-53
2021/04/04 01:09:58;;;;;;;7.47;5.30;;;;;;;2.80;53.02;101914.97;684336;28;22372;-51
2021/04/04 01:10:19;;;;;;;6.75;5.72;;;;;;;2.79;52.86;101916.81;683934;28;23317;-57
2021/04/04 01:10:43;;;;;;;6.70;5.80;;;;;;;2.80;53.04;101914.97;683860;28;21552;-57
2021/04/04 01:11:05;;;;;;;7.18;5.63;;;;;;;2.80;52.82;101920.31;681916;28;92232;-56
2021/04/04 01:11:31;;;;;;;7.72;5.65;;;;;;;2.79;52.85;101919.47;687242;28;44316;-57
2021/04/04 01:11:57;;;;;;;7.63;5.28;;;;;;;2.78;52.96;101917.75;683186;28;136464;-52
2021/04/04 01:12:22;;;;;;;6.43;5.28;;;;;;;2.78;52.83;101909.75;684650;28;138110;-54
2021/04/04 01:12:48;;;;;;;7.72;5.63;;;;;;;2.77;52.90;101910.69;683867;28;138780;-57
2021/04/04 01:13:16;;;;;;;6.50;5.18;;;;;;;2.78;53.00;101914.22;683791;28;138014;-53
2021/04/04 01:13:42;;;;;;;7.57;5.88;;;;;;;2.75;52.94;101915.28;683726;28;138697;-53
2021/04/04 01:14:09;;;;;;;8.48;5.63;;;;;;;2.75;53.19;101909.09;688179;28;116146;-56
2021/04/04 01:14:33;;;;;;;6.18;5.50;;;;;;;2.73;53.23;101914.53;687454;28;137965;-53
2021/04/04 01:14:58;;;;;;;6.00;5.45;;;;;;;2.73;53.45;101913.63;689187;28;92225;-56
2021/04/04 01:15:23;;;;;;;5.88;5.28;;;;;;;2.72;53.33;101912.78;687581;28;115228;-55
2021/04/04 01:15:49;;;;;;;7.03;5.72;;;;;;;2.72;53.45;101911.94;686838;28;115310;-54
2021/04/04 01:16:14;;;;;;;7.00;5.90;;;;;;;2.72;53.36;101909.28;687148;28;136373;-54
2021/04/04 01:16:38;;;;;;;8.70;5.45;;;;;;;2.68;53.60;101908.59;688817;28;92552;-54
2021/04/04 01:17:02;;;;;;;8.02;5.75;;;;;;;2.73;53.72;101903.84;688452;28;92096;-53
2021/04/04 01:17:24;;;;;;;7.20;5.65;;;;;;;2.73;53.66;101916.31;689040;28;92473;-53
2021/04/04 01:17:47;;;;;;;7.95;5.70;;;;;;;2.74;53.45;101918.88;690251;28;45248;-56
2021/04/04 01:18:11;;;;;;;8.55;6.43;;;;;;;2.74;53.43;101915.38;689449;28;69469;-53
2021/04/04 01:18:35;;;;;;;7.78;5.72;;;;;;;2.75;53.55;101911.75;687637;28;90797;-56
2021/04/04 01:19:00;;;;;;;7.13;5.82;;;;;;;2.75;53.31;101909.94;688672;28;91156;-55
2021/04/04 01:19:30;;;;;;;7.70;6.00;;;;;;;2.77;53.51;101923.19;686805;28;138044;-54
2021/04/04 01:20:05;;;;;;;6.97;5.88;;;;;;;2.78;53.42;101922.22;687550;28;136451;-51
2021/04/04 01:20:28;;;;;;;7.20;6.13;;;;;;;2.77;53.68;101918.69;686670;28;137695;-54
2021/04/04 01:20:53;;;;;;;6.40;5.80;;;;;;;2.78;53.61;101917.75;686342;28;67226;-54
2021/04/04 01:21:17;;;;;;;6.15;5.55;;;;;;;2.79;53.50;101921.25;686191;28;92324;-57
2021/04/04 01:21:41;;;;;;;10.68;6.28;;;;;;;2.80;53.47;101921.16;684799;28;115204;-55
2021/04/04 01:22:13;;;;;;;10.23;6.38;;;;;;;2.84;53.41;101928.03;685242;28;91928;-54
2021/04/04 01:22:55;;;;;;;8.27;6.30;;;;;;;2.85;53.41;101923.53;684576;28;137062;-55
2021/04/04 01:23:38;;;;;;;7.80;6.25;;;;;;;2.88;53.32;101918.88;690144;28;61878;-54
2021/04/04 01:24:09;;;;;;;7.35;6.22;;;;;;;2.88;53.28;101926.88;687779;28;119874;-57
2021/04/04 01:24:38;;;;;;;8.40;6.20;;;;;;;2.89;53.30;101923.25;686728;28;160578;-54
2021/04/04 01:25:06;;;;;;;7.97;5.75;;;;;;;2.91;53.13;101925.81;687733;28;120235;-57
2021/04/04 01:25:31;;;;;;;7.40;5.63;;;;;;;2.92;53.20;101919.53;687225;28;118610;-58
2021/04/04 01:26:00;;;;;;;6.70;5.80;;;;;;;2.89;53.22;101923.25;686866;28;115820;-53
2021/04/04 01:26:32;;;;;;;9.55;6.00;;;;;;;2.90;53.30;101924.13;686978;28;136556;-56
2021/04/04 01:27:03;;;;;;;8.13;6.35;;;;;;;2.89;53.34;101925.91;685429;28;160513;-56
2021/04/04 01:27:36;;;;;;;8.05;6.22;;;;;;;2.91;53.45;101924.97;687289;28;136061;-56
2021/04/04 01:28:00;;;;;;;8.45;6.22;;;;;;;2.92;53.32;101918.69;687229;28;136561;-55
2021/04/04 01:28:25;;;;;;;11.13;6.63;;;;;;;2.92;53.34;101916.03;688572;28;89805;-54
2021/04/04 01:28:47;;;;;;;9.35;6.35;;;;;;;2.92;53.33;101922.22;686399;28;138275;-51
2021/04/04 01:29:09;;;;;;;8.95;6.47;;;;;;;2.94;53.13;101914.09;690098;28;43986;-54
2021/04/04 01:29:32;;;;;;;9.13;6.55;;;;;;;2.97;53.11;101916.56;692097;28;1238;-54
2021/04/04 01:29:54;;;;;;;7.65;6.18;;;;;;;2.96;52.99;101907.72;689588;28;69679;-54
2021/04/04 01:30:16;;;;;;;6.95;6.22;;;;;;;2.98;53.04;101920.94;690671;28;37748;-54
2021/04/04 01:30:40;;;;;;;7.18;6.35;;;;;;;2.98;53.10;101923.59;690037;28;43808;-54
2021/04/04 01:31:02;;;;;;;8.38;6.50;;;;;;;3.00;52.89;101925.22;689735;28;57024;-54
2021/04/04 01:31:24;;;;;;;8.23;6.47;;;;;;;3.00;52.97;101921.72;691425;28;13984;-54
2021/04/04 01:31:45;;;;;;;7.13;6.13;;;;;;;2.99;52.95;101915.50;687350;28;49606;-54
2021/04/04 01:32:07;;;;;;;7.72;5.93;;;;;;;2.99;52.64;101923.50;686960;28;39172;-53
2021/04/04 01:32:28;;;;;;;7.97;6.30;;;;;;;2.97;52.98;101924.56;688534;28;22416;-55
2021/04/04 01:32:50;;;;;;;9.75;6.13;;;;;;;2.95;52.96;101921.16;687774;28;42608;-54
2021/04/04 01:33:14;;;;;;;7.85;6.18;;;;;;;2.93;53.18;101918.59;687831;28;38643;-52
2021/04/04 01:33:36;;;;;;;7.32;5.97;;;;;;;2.95;53.05;101926.50;685685;28;92301;-54
2021/04/04 01:33:58;;;;;;;10.02;6.53;;;;;;;2.93;53.14;101921.25;690326;28;44512;-56
2021/04/04 01:34:20;;;;;;;10.60;6.90;;;;;;;2.94;53.26;101922.09;688198;28;21664;-55
2021/04/04 01:34:42;;;;;;;9.57;7.15;;;;;;;2.94;53.27;101922.09;686789;28;63488;-54
2021/04/04 01:35:05;;;;;;;8.98;7.18;;;;;;;2.95;53.28;101915.81;689013;28;7633;-55
2021/04/04 01:35:28;;;;;;;7.78;6.78;;;;;;;2.95;53.16;101921.16;686116;28;69366;-56
2021/04/04 01:35:53;;;;;;;7.80;6.70;;;;;;;2.95;53.27;101918.50;686280;28;57166;-58
2021/04/04 01:36:16;;;;;;;10.40;6.85;;;;;;;2.95;53.18;101915.81;686705;28;115138;-56
2021/04/04 01:36:38;;;;;;;10.35;6.78;;;;;;;2.95;53.11;101919.34;690948;28;38051;-52
2021/04/04 01:37:03;;;;;;;7.85;6.60;;;;;;;2.96;52.91;101918.41;688978;28;60110;-55
2021/04/04 01:37:24;;;;;;;8.13;6.47;;;;;;;2.94;52.72;101914.94;687565;28;115094;-52
2021/04/04 01:37:46;;;;;;;10.98;6.80;;;;;;;2.92;52.87;101916.03;690524;28;21216;-56
2021/04/04 01:38:11;;;;;;;10.55;6.82;;;;;;;2.91;52.76;101912.47;691525;28;21556;-55
2021/04/04 01:38:38;;;;;;;7.95;6.50;;;;;;;2.92;52.94;101916.03;689513;28;61682;-55
2021/04/04 01:39:01;;;;;;;9.35;6.70;;;;;;;2.92;52.70;101919.53;687386;28;126272;-55
2021/04/04 01:39:25;;;;;;;7.93;6.40;;;;;;;2.93;52.90;101912.38;689878;28;66861;-53
2021/04/04 01:39:49;;;;;;;9.98;7.28;;;;;;;2.92;52.92;101906.19;688523;28;92361;-55
2021/04/04 01:40:13;;;;;;;9.10;6.80;;;;;;;2.89;53.08;101911.72;685324;28;90269;-52
2021/04/04 01:40:36;;;;;;;9.88;6.68;;;;;;;2.87;53.42;101911.81;684158;28;85190;-56
2021/04/04 01:41:01;;;;;;;8.52;6.60;;;;;;;2.90;53.36;101910.78;686019;28;47275;-54
2021/04/04 01:41:26;;;;;;;8.48;6.47;;;;;;;2.92;53.20;101908.00;684236;28;105873;-57
2021/04/04 01:41:49;;;;;;;8.77;6.63;;;;;;;2.91;53.18;101911.63;683456;28;106305;-52
2021/04/04 01:42:12;;;;;;;8.75;6.57;;;;;;;2.92;53.22;101913.34;687603;28;66623;-55
2021/04/04 01:42:34;;;;;;;10.13;6.50;;;;;;;2.91;53.42;101906.28;685115;28;69306;-53
2021/04/04 01:42:57;;;;;;;8.23;6.68;;;;;;;2.91;53.21;101909.81;687777;28;39366;-56
2021/04/04 01:43:19;;;;;;;8.85;6.45;;;;;;;2.92;53.13;101908.84;687729;28;41778;-54
2021/04/04 01:43:42;;;;;;;9.45;6.85;;;;;;;2.93;53.06;101901.69;685721;28;47477;-56
2021/04/04 01:44:05;;;;;;;10.57;7.15;;;;;;;2.91;53.05;101907.13;686775;28;70244;-54
2021/04/04 01:44:26;;;;;;;11.23;6.55;;;;;;;2.89;52.97;101904.56;687735;28;69392;-54
2021/04/04 01:44:49;;;;;;;9.82;6.53;;;;;;;2.92;52.93;101902.69;689892;28;23454;-54
2021/04/04 01:45:10;;;;;;;10.30;6.60;;;;;;;2.93;52.78;101910.59;689776;28;60429;-52
2021/04/04 01:45:33;;;;;;;8.60;6.47;;;;;;;2.95;52.81;101905.16;689467;28;47006;-52
2021/04/04 01:45:55;;;;;;;8.40;6.60;;;;;;;2.94;52.80;101906.09;688660;28;67503;-57
2021/04/04 01:46:17;;;;;;;8.93;6.85;;;;;;;2.95;52.71;101902.47;691428;28;21538;-52
2021/04/04 01:46:39;;;;;;;8.13;6.68;;;;;;;2.92;52.80;101905.34;690753;28;46348;-56
2021/04/04 01:47:00;;;;;;;7.72;6.53;;;;;;;2.91;52.91;101911.63;688781;28;69362;-53
2021/04/04 01:47:22;;;;;;;8.55;6.47;;;;;;;2.89;52.81;101904.56;691355;28;22321;-57